Erie, PA (16506)

2:57 AM EST op 24 november 2014 (GMT -0500)
CARTER`S Lawn Care | Change Station
CLOSE
Current Station
Persoonlijk weerstation
Location: Erie, PA
Geometrische hoogte: 836 ft
Nabije weerstations

Hoogte 836 ft 42.07 °N, 80.16 °W | Updated 3 seconds ago

Overcast
Geheel bewolkt
56.6 °F
Voelt als 56.6 °F
N
4.0
Wind Variabel Wind van ZW
Gusts 17.0 mijl/u

Vandaag
Hoog -- | Laag -- °F
--% Kans op neerslag
Gisteren
Hoog -- | Laag -- °F
Precip. -- inches
7:21 AM 4:52 PM
Wassende halvemaan, 4% visible
Druk 29.28 inches
Zicht 10.0 mijlen
Wolken Gering 4900 ft
Geheel bewolkt 6000 ft
Dauwpunt 54 °F
Vochtigheid 90%
Neerslag 0.00 inches
Dikte sneeuw Niet beschikbaar.
UV 0 van de 12
Pollen .10 van de 12
Luchtkwaliteit Niet beschikbaar.
Flu Activity Niet beschikbaar.
METAR KERI 240751Z 16019G32KT 10SM FEW049 OVC060 14/09 A2928 RMK AO2 PK WND 16037/0652 SLP915 T01440094

More Conditions Fewer Conditions

Druk 29.28 inches
Zicht 10.0 mijlen
Wolken Gering 4900 ft
Geheel bewolkt 6000 ft
Dauwpunt 54 °F
Vochtigheid 90%
Neerslag 0.00 inches
Dikte sneeuw Niet beschikbaar.
UV 0 van de 12
Pollen .10 van de 12
Luchtkwaliteit Niet beschikbaar.
Flu Activity Niet beschikbaar.
METAR KERI 240751Z 16019G32KT 10SM FEW049 OVC060 14/09 A2928 RMK AO2 PK WND 16037/0652 SLP915 T01440094

More Conditions Fewer Conditions

10-Day Weather Forecast

Almanac

Astronomie

Nov. 24, 2014 Opkomst Ondergang
Werkelijke tijd
Burgerlijke schemering
Nautische schemering
Astronomische schemering
Maan
Golflengte van het zichtbare licht
Daglengte
Tomorrow will be .
, % of the Moon is Illuminated

Extremen vandaag

State Highs State Lows

Community

WunderPhotos

Upload Photos

1,773,295 foto’s ge-upload!

WunderBlogs® & News

Nearby

Luchtkwaliteit

  Luchtkwaliteit LK-index Verontreinigende stof
Not available.

Dikte sneeuw

Station Depth Geometrische hoogte

Aardbevingen

Stad Distance Mag. Time & Date
Minimum magnitude displayed is 2.5.

Watertemperatuur langs de kust

Plaats Temperatuur

Nabije weerstations